ADDS TAF Board (Experimental) INFO Settings
IDs:

KMCI - Kansas City Intl, MO, US

Issued at 0520 UTC 08 Jul 2015
Updated at: 0648 UTC 08 Jul 2015
Time0553Z 08/07Z 08/08Z 08/09Z 08/10Z 08/11Z 08/12Z 08/13Z 08/14Z 08/15Z 08/16Z 08/17Z 08/18Z 08/19Z
Type OBS PRVL PRVL PRVL PRVL PRVL PRVL PRVL PRVL PRVL PRVL PRVL PRVL PRVL
VIS 10 5 5 5 5 5 5 5 5 5 5 5 5 5
CIG 50 40 40 40 40 40 8 8 8 8 8 8 8 8
Cover OVC OVC OVC OVC OVC OVC OVC OVC OVC OVC OVC OVC OVC OVC
FltCat VFR MVFR MVFR MVFR MVFR MVFR IFR IFR IFR IFR IFR IFR IFR IFR
WX -DZ BR VCSH BR VCSH BR VCSH BR VCSH BR VCSH -RA BR -RA BR -RA BR -RA BR -RA BR -RA BR -RA BR -RA BR
WDir 80 50 50 50 50 50 50 50 50 50 50 50 50 50
WSpd 7 7 7 7 7 7 12 12 12 12 12 12 12 12
WGst -- -- -- -- -- -- -- -- -- -- -- -- -- --
R01/19
XWnd -6 -4 -4 -4 -4 -4 -7 -7 -7 -7 -7 -7 -7 -7
HWnd 3 6 6 6 6 6 10 10 10 10 10 10 10 10
R09/27
XWnd 2 5 5 5 5 5 9 9 9 9 9 9 9 9
HWnd 7 5 5 5 5 5 8 8 8 8 8 8 8 8

NOTE: TEMPO conditions in [brackets]. Keep in mind TEMPO conditions might be better (lower impact) than prevailing conditions.

Raw TAF
KMCI 080520Z 0806/0906 05007KT 5SM BR VCSH OVC040
  FM081200 05012KT 5SM -RA BR OVC008
  FM082000 04007KT P6SM BKN035


Raw METAR
KMCI 080553Z 08007KT 10SM -DZ OVC050 19/15 A3006 RMK AO2 SLP172 P0000 60000 T01890150 10206 20189 402220161 50001
KMCI 080453Z 08007KT 10SM -DZ OVC055 19/15 A3007 RMK AO2 RAB02E12DZB51 SLP173 P0000 T01940150
KMCI 080353Z 05007KT 10SM OVC060 19/16 A3007 RMK AO2 SLP177 T01940156

METAR Board
Radar Display
Forecast Discussion

TAF Board Legend

Potential Impact
Threat None Slight Moderate High
Visibility (sm) ≥5.1 5.1>X≥3 3>X≥1 <1
Ceiling (100 ft) ≥30.1 30.1>X≥10 10>X≥5 <5
Wind Speed (kt) <10 10≤X<20 20≤X<30 ≥30
Wind Gust (kt) <15 15≤X<25 25≤X<35 ≥35
Weather No Wx Reported VCTS,-TS,-FZRA,SN TS,FZRA +TS,+FZRA,+SN